createdAt,value
2023-07-16T00:02:05.958Z,99584.96
2023-07-16T00:04:33.526Z,99590.27
2023-07-16T00:07:01.736Z,99592.11
2023-07-16T00:09:29.538Z,99591.55
2023-07-16T00:11:57.665Z,99591.34
2023-07-16T00:14:24.660Z,99590.86
2023-07-16T00:16:52.074Z,99592.11
2023-07-16T00:19:19.622Z,99591.54
2023-07-16T00:21:46.795Z,99592.67
2023-07-16T00:24:13.822Z,99593.03
2023-07-16T00:26:41.922Z,99594.70
2023-07-16T00:29:09.777Z,99591.52
2023-07-16T00:31:37.014Z,99591.02
2023-07-16T00:34:04.264Z,99592.69
2023-07-16T00:36:31.770Z,99586.09
2023-07-16T00:38:58.768Z,99588.55
2023-07-16T00:41:26.019Z,99586.31
2023-07-16T00:43:54.928Z,99588.98
2023-07-16T00:46:22.109Z,99584.21
2023-07-16T00:48:49.515Z,99585.05
2023-07-16T00:51:18.522Z,99585.87
2023-07-16T00:53:45.569Z,99587.98
2023-07-16T00:56:12.599Z,99588.77
2023-07-16T00:58:39.684Z,99588.77
2023-07-16T01:01:06.829Z,99585.05
2023-07-16T01:03:34.769Z,99589.48
2023-07-16T01:06:12.061Z,99586.02
2023-07-16T01:08:42.599Z,99591.11
2023-07-16T01:11:09.781Z,99589.88
2023-07-16T01:13:36.908Z,99590.10
2023-07-16T01:16:07.028Z,99591.83
2023-07-16T01:18:34.052Z,99590.70
2023-07-16T01:21:01.117Z,99588.84
2023-07-16T01:23:31.117Z,99588.00
2023-07-16T01:26:25.296Z,99589.22
2023-07-16T01:29:10.165Z,99586.66
2023-07-16T01:31:37.120Z,99585.69
2023-07-16T01:34:04.317Z,99586.34
2023-07-16T01:36:31.815Z,99585.25
2023-07-16T01:38:58.778Z,99589.48
2023-07-16T01:41:25.808Z,99589.44
2023-07-16T01:43:52.781Z,99589.51
2023-07-16T01:46:20.070Z,99586.62
2023-07-16T01:48:47.864Z,99589.73
2023-07-16T01:51:15.377Z,99589.23
2023-07-16T01:53:42.335Z,99590.16
2023-07-16T01:56:09.435Z,99589.74
2023-07-16T01:58:37.794Z,99586.03
2023-07-16T02:01:04.990Z,99587.02
2023-07-16T02:03:33.227Z,99585.74
2023-07-16T02:06:01.300Z,99588.23
2023-07-16T02:08:28.544Z,99584.31
2023-07-16T02:10:56.002Z,99584.27
2023-07-16T02:13:23.769Z,99583.27
2023-07-16T02:15:51.173Z,99585.06
2023-07-16T02:18:18.902Z,99583.77
2023-07-16T02:20:46.650Z,99586.54
2023-07-16T02:23:13.840Z,99590.05
2023-07-16T02:25:41.367Z,99588.89
2023-07-16T02:28:08.752Z,99588.40
2023-07-16T02:30:36.171Z,99589.76
2023-07-16T02:33:03.281Z,99592.09
2023-07-16T02:35:31.091Z,99590.79
2023-07-16T02:37:57.920Z,99590.50
2023-07-16T02:40:27.460Z,99591.10
2023-07-16T02:42:54.584Z,99591.40
2023-07-16T02:45:21.555Z,99590.06
2023-07-16T02:47:48.793Z,99591.89
2023-07-16T02:50:16.953Z,99592.41
2023-07-16T02:52:44.204Z,99590.69
2023-07-16T02:55:11.449Z,99592.61
2023-07-16T02:57:38.721Z,99594.08
2023-07-16T03:00:07.088Z,99592.54
2023-07-16T03:02:34.459Z,99597.37
2023-07-16T03:05:03.437Z,99598.15
2023-07-16T03:07:30.921Z,99595.70
2023-07-16T03:09:57.932Z,99593.92
2023-07-16T03:12:25.098Z,99592.86
2023-07-16T03:14:54.898Z,99594.20
2023-07-16T03:17:24.829Z,99594.48
2023-07-16T03:19:53.938Z,99599.19
2023-07-16T03:22:23.655Z,99598.36
2023-07-16T03:24:50.871Z,99600.77
2023-07-16T03:27:19.081Z,99603.30
2023-07-16T03:29:49.769Z,99600.80
2023-07-16T03:32:18.075Z,99601.80
2023-07-16T03:34:46.020Z,99597.90
2023-07-16T03:37:15.260Z,99597.30
2023-07-16T03:39:42.528Z,99602.02
2023-07-16T03:42:10.134Z,99606.00
2023-07-16T03:44:37.195Z,99602.95
2023-07-16T03:47:04.704Z,99605.88
2023-07-16T03:49:32.004Z,99605.64
2023-07-16T03:51:58.927Z,99606.44
2023-07-16T03:54:26.800Z,99604.80
2023-07-16T03:56:53.947Z,99607.13
2023-07-16T03:59:21.342Z,99608.33
2023-07-16T04:01:48.528Z,99615.05
2023-07-16T04:04:15.807Z,99608.30
2023-07-16T04:06:43.798Z,99608.52
2023-07-16T04:09:11.128Z,99611.77
2023-07-16T04:11:38.402Z,99609.30
2023-07-16T04:14:07.683Z,99610.05
2023-07-16T04:16:35.405Z,99612.44
2023-07-16T04:19:02.399Z,99614.29
2023-07-16T04:21:29.433Z,99617.39
2023-07-16T04:23:56.377Z,99617.80
2023-07-16T04:26:23.527Z,99621.86
2023-07-16T04:28:50.582Z,99628.17
2023-07-16T04:31:17.844Z,99627.94
2023-07-16T04:33:44.976Z,99631.00
2023-07-16T04:36:11.918Z,99628.52
2023-07-16T04:38:39.093Z,99635.05
2023-07-16T04:41:06.321Z,99625.81
2023-07-16T04:43:33.508Z,99626.66
2023-07-16T04:46:00.559Z,99629.67
2023-07-16T04:48:27.917Z,99629.27
2023-07-16T04:50:55.020Z,99637.19
2023-07-16T04:53:23.300Z,99642.94
2023-07-16T04:55:50.664Z,99640.67
2023-07-16T04:58:17.915Z,99642.30
2023-07-16T05:00:44.974Z,99644.06
2023-07-16T05:03:12.019Z,99643.27
2023-07-16T05:05:40.990Z,99643.05
2023-07-16T05:08:08.042Z,99645.02
2023-07-16T05:10:35.600Z,99645.11
2023-07-16T05:13:04.300Z,99648.58
2023-07-16T05:15:32.969Z,99646.29
2023-07-16T05:18:00.608Z,99651.52
2023-07-16T05:20:27.876Z,99648.86
2023-07-16T05:22:55.420Z,99645.59
2023-07-16T05:25:22.497Z,99645.00
2023-07-16T05:27:49.541Z,99650.05
2023-07-16T05:30:17.011Z,99651.39
2023-07-16T05:32:44.392Z,99654.19
2023-07-16T05:35:11.915Z,99656.55
2023-07-16T05:37:38.954Z,99659.65
2023-07-16T05:40:09.502Z,99657.55
2023-07-16T05:42:37.251Z,99660.08
2023-07-16T05:45:04.801Z,99660.70
2023-07-16T05:47:32.120Z,99666.68
2023-07-16T05:49:59.206Z,99665.23
2023-07-16T05:52:26.670Z,99671.95
2023-07-16T05:54:53.815Z,99674.95
2023-07-16T05:57:20.871Z,99670.10
2023-07-16T05:59:47.800Z,99674.06
2023-07-16T06:02:14.970Z,99667.84
2023-07-16T06:04:42.001Z,99670.13
2023-07-16T06:07:13.551Z,99664.83
2023-07-16T06:09:42.035Z,99665.34
2023-07-16T06:12:09.076Z,99664.74
2023-07-16T06:14:36.136Z,99665.47
2023-07-16T06:17:03.478Z,99665.66
2023-07-16T06:19:30.548Z,99663.76
2023-07-16T06:21:57.798Z,99663.77
2023-07-16T06:24:25.282Z,99666.58
2023-07-16T06:26:56.784Z,99660.77
2023-07-16T06:29:23.836Z,99659.90
2023-07-16T06:31:58.756Z,99662.03
2023-07-16T06:34:26.028Z,99661.43
2023-07-16T06:36:53.316Z,99661.24
2023-07-16T06:39:21.138Z,99662.20
2023-07-16T06:41:48.401Z,99661.79
2023-07-16T06:44:15.852Z,99660.70
2023-07-16T06:46:44.272Z,99664.05
2023-07-16T06:49:11.402Z,99665.63
2023-07-16T06:51:38.828Z,99664.50
2023-07-16T06:54:06.111Z,99669.36
2023-07-16T06:56:33.026Z,99671.06
2023-07-16T06:58:59.966Z,99668.69
2023-07-16T07:01:28.688Z,99669.05
2023-07-16T07:03:55.965Z,99672.63
2023-07-16T07:06:25.592Z,99668.82
2023-07-16T07:08:53.090Z,99667.23
2023-07-16T07:11:20.879Z,99669.84
2023-07-16T07:13:51.060Z,99664.48
2023-07-16T07:16:19.114Z,99668.67
2023-07-16T07:18:46.284Z,99662.23
2023-07-16T07:21:13.327Z,99660.07
2023-07-16T07:23:41.414Z,99659.46
2023-07-16T07:26:09.162Z,99659.20
2023-07-16T07:28:37.377Z,99661.92
2023-07-16T07:31:06.579Z,99662.05
2023-07-16T07:33:33.784Z,99663.74
2023-07-16T07:36:00.737Z,99663.95
2023-07-16T07:38:31.419Z,99664.52
2023-07-16T07:40:58.425Z,99665.71
2023-07-16T07:43:25.680Z,99661.11
2023-07-16T07:45:53.454Z,99661.89
2023-07-16T07:48:22.010Z,99661.27
2023-07-16T07:50:51.157Z,99663.40
2023-07-16T07:53:20.000Z,99661.17
2023-07-16T07:55:47.247Z,99664.61
2023-07-16T07:58:14.327Z,99665.82
2023-07-16T08:00:41.338Z,99667.25
2023-07-16T08:03:08.681Z,99667.65
2023-07-16T08:05:36.149Z,99667.70
2023-07-16T08:08:03.448Z,99665.79
2023-07-16T08:10:30.479Z,99661.12
2023-07-16T08:12:58.217Z,99661.40
2023-07-16T08:15:25.684Z,99657.60
2023-07-16T08:17:55.492Z,99660.05
2023-07-16T08:20:22.860Z,99652.44
2023-07-16T08:22:50.689Z,99650.21
2023-07-16T08:25:17.993Z,99645.05
2023-07-16T08:27:45.009Z,99646.85
2023-07-16T08:30:12.277Z,99641.37
2023-07-16T08:32:39.600Z,99640.56
2023-07-16T08:35:07.491Z,99644.92
2023-07-16T08:37:34.538Z,99643.62
2023-07-16T08:40:01.588Z,99637.77
2023-07-16T08:42:28.532Z,99632.94
2023-07-16T08:44:55.663Z,99636.09
2023-07-16T08:47:23.088Z,99633.27
2023-07-16T08:50:01.136Z,99632.71
2023-07-16T08:52:28.883Z,99635.41
2023-07-16T08:54:56.062Z,99632.85
2023-07-16T08:57:23.604Z,99631.66
2023-07-16T08:59:51.461Z,99631.37
2023-07-16T09:02:19.230Z,99627.85
2023-07-16T09:04:51.449Z,99628.73
2023-07-16T09:07:19.793Z,99631.27
2023-07-16T09:09:59.656Z,99628.78
2023-07-16T09:12:27.073Z,99630.96
2023-07-16T09:14:56.211Z,99629.59
2023-07-16T09:17:27.384Z,99629.38
2023-07-16T09:19:54.590Z,99627.54
2023-07-16T09:22:21.975Z,99626.23
2023-07-16T09:24:49.604Z,99625.88
2023-07-16T09:27:16.656Z,99623.20
2023-07-16T09:29:44.085Z,99620.40
2023-07-16T09:32:11.229Z,99616.88
2023-07-16T09:34:39.519Z,99615.98
2023-07-16T09:37:07.195Z,99613.30
2023-07-16T09:39:34.335Z,99606.98
2023-07-16T09:42:02.082Z,99605.29
2023-07-16T09:44:29.977Z,99607.73
2023-07-16T09:46:57.144Z,99609.70
2023-07-16T09:49:24.695Z,99606.62
2023-07-16T09:51:52.021Z,99607.19
2023-07-16T09:54:19.782Z,99609.31
2023-07-16T09:56:50.313Z,99607.30
2023-07-16T09:59:18.696Z,99610.46
2023-07-16T10:01:45.916Z,99611.46
2023-07-16T10:04:20.982Z,99612.06
2023-07-16T10:07:22.328Z,99608.69
2023-07-16T10:09:57.413Z,99609.27
2023-07-16T10:12:25.887Z,99610.05
2023-07-16T10:14:59.846Z,99601.80
2023-07-16T10:17:27.330Z,99600.26
2023-07-16T10:20:02.467Z,99600.50
2023-07-16T10:22:39.771Z,99601.71
2023-07-16T10:25:11.334Z,99599.70
2023-07-16T10:27:39.797Z,99598.63
2023-07-16T10:30:08.140Z,99589.66
2023-07-16T10:32:35.666Z,99585.42
2023-07-16T10:35:03.918Z,99580.56
2023-07-16T10:37:30.936Z,99581.60
2023-07-16T10:40:00.227Z,99581.17
2023-07-16T10:42:28.088Z,99582.32
2023-07-16T10:44:56.711Z,99580.36
2023-07-16T10:47:25.166Z,99574.81
2023-07-16T10:49:54.756Z,99569.66
2023-07-16T10:52:22.636Z,99569.79
2023-07-16T10:54:50.692Z,99571.72
2023-07-16T10:57:17.680Z,99574.63
2023-07-16T10:59:45.606Z,99572.42
2023-07-16T11:02:14.740Z,99574.73
2023-07-16T11:04:44.725Z,99577.53
2023-07-16T11:07:12.710Z,99576.28
2023-07-16T11:10:03.488Z,99570.37
2023-07-16T11:12:30.845Z,99579.98
2023-07-16T11:14:58.408Z,99578.23
2023-07-16T11:17:27.531Z,99572.13
2023-07-16T11:19:56.213Z,99570.36
2023-07-16T11:22:29.971Z,99571.23
2023-07-16T11:24:57.033Z,99572.20
2023-07-16T11:27:26.865Z,99564.75
2023-07-16T11:29:58.107Z,99570.74
2023-07-16T11:32:35.803Z,99570.65
2023-07-16T11:35:04.816Z,99567.89
2023-07-16T11:37:33.262Z,99564.38
2023-07-16T11:40:09.832Z,99563.61
2023-07-16T11:42:40.676Z,99560.70
2023-07-16T11:45:27.072Z,99561.91
2023-07-16T11:47:54.787Z,99559.27
2023-07-16T11:50:22.098Z,99554.81
2023-07-16T11:52:54.211Z,99552.40
2023-07-16T11:55:21.097Z,99549.51
2023-07-16T11:57:48.571Z,99550.23
2023-07-16T12:00:15.795Z,99552.48
2023-07-16T12:02:43.293Z,99550.70
2023-07-16T12:05:12.286Z,99544.04
2023-07-16T12:07:40.986Z,99543.27
2023-07-16T12:10:08.648Z,99545.34
2023-07-16T12:12:39.107Z,99540.73
2023-07-16T12:15:08.224Z,99537.29
2023-07-16T12:17:36.425Z,99539.26
2023-07-16T12:20:04.767Z,99540.08
2023-07-16T12:22:32.842Z,99538.64
2023-07-16T12:25:00.235Z,99536.73
2023-07-16T12:27:27.294Z,99534.09
2023-07-16T12:29:54.712Z,99532.55
2023-07-16T12:32:22.096Z,99532.39
2023-07-16T12:34:49.222Z,99530.52
2023-07-16T12:37:17.690Z,99536.52
2023-07-16T12:39:44.862Z,99532.36
2023-07-16T12:42:12.001Z,99533.21
2023-07-16T12:44:39.756Z,99531.58
2023-07-16T12:47:09.137Z,99532.60
2023-07-16T12:49:36.441Z,99533.08
2023-07-16T12:52:04.196Z,99528.14
2023-07-16T12:54:32.446Z,99525.91
2023-07-16T12:56:59.414Z,99527.81
2023-07-16T12:59:26.544Z,99528.22
2023-07-16T13:01:53.620Z,99525.55
2023-07-16T13:04:20.634Z,99520.98
2023-07-16T13:06:49.112Z,99518.23
2023-07-16T13:09:17.216Z,99520.29
2023-07-16T13:11:44.347Z,99519.20
2023-07-16T13:14:11.599Z,99515.14
2023-07-16T13:16:39.287Z,99517.50
2023-07-16T13:19:06.600Z,99514.05
2023-07-16T13:21:34.677Z,99516.88
2023-07-16T13:24:01.658Z,99514.29
2023-07-16T13:26:29.534Z,99508.95
2023-07-16T13:28:56.916Z,99512.59
2023-07-16T13:31:24.029Z,99508.95
2023-07-16T13:33:51.138Z,99503.35
2023-07-16T13:36:18.909Z,99501.79
2023-07-16T13:38:46.271Z,99506.09
2023-07-16T13:41:13.065Z,99498.35
2023-07-16T13:43:40.164Z,99501.48
2023-07-16T13:46:09.541Z,99497.05
2023-07-16T13:48:47.868Z,99492.93
2023-07-16T13:51:24.236Z,99488.86
2023-07-16T13:53:51.282Z,99486.30
2023-07-16T13:56:18.503Z,99486.91
2023-07-16T13:58:45.882Z,99484.82
2023-07-16T14:01:13.155Z,99484.20
2023-07-16T14:03:40.410Z,99479.14
2023-07-16T14:06:07.783Z,99481.35
2023-07-16T14:08:36.634Z,99479.39
2023-07-16T14:11:03.987Z,99479.55
2023-07-16T14:13:31.357Z,99474.84
2023-07-16T14:15:58.298Z,99469.35
2023-07-16T14:18:25.773Z,99466.21
2023-07-16T14:20:52.804Z,99464.66
2023-07-16T14:23:20.169Z,99464.64
2023-07-16T14:25:47.404Z,99460.32
2023-07-16T14:28:14.540Z,99459.98
2023-07-16T14:30:42.635Z,99462.36
2023-07-16T14:33:11.811Z,99459.14
2023-07-16T14:35:40.005Z,99459.48
2023-07-16T14:38:07.237Z,99460.36
2023-07-16T14:40:35.451Z,99453.85
2023-07-16T14:43:04.914Z,99452.61
2023-07-16T14:45:34.691Z,99452.34
2023-07-16T14:48:02.075Z,99447.33
2023-07-16T14:50:29.642Z,99445.16
2023-07-16T14:52:56.812Z,99444.48
2023-07-16T14:55:23.954Z,99438.83
2023-07-16T14:57:51.431Z,99439.56
2023-07-16T15:00:19.260Z,99439.94
2023-07-16T15:02:46.681Z,99439.98
2023-07-16T15:05:13.698Z,99439.73
2023-07-16T15:07:42.246Z,99439.63
2023-07-16T15:10:10.454Z,99438.64
2023-07-16T15:12:37.997Z,99442.48
2023-07-16T15:15:11.729Z,99435.02
2023-07-16T15:17:39.014Z,99437.89
2023-07-16T15:20:07.480Z,99438.03
2023-07-16T15:22:35.125Z,99437.46
2023-07-16T15:25:03.452Z,99437.09
2023-07-16T15:27:31.965Z,99437.98
2023-07-16T15:29:59.594Z,99437.45
2023-07-16T15:32:27.076Z,99436.98
2023-07-16T15:34:54.416Z,99437.61
2023-07-16T15:37:22.068Z,99435.68
2023-07-16T15:39:49.844Z,99435.40
2023-07-16T15:42:16.877Z,99433.19
2023-07-16T15:44:43.946Z,99427.27
2023-07-16T15:47:11.178Z,99430.46
2023-07-16T15:49:38.462Z,99426.66
2023-07-16T15:52:05.685Z,99427.33
2023-07-16T15:54:32.772Z,99426.94
2023-07-16T15:57:00.502Z,99429.80
2023-07-16T15:59:27.545Z,99430.02
2023-07-16T16:01:55.436Z,99426.91
2023-07-16T16:04:22.862Z,99427.29
2023-07-16T16:06:50.028Z,99426.67
2023-07-16T16:09:17.690Z,99430.54
2023-07-16T16:11:44.852Z,99429.61
2023-07-16T16:14:12.710Z,99425.57
2023-07-16T16:16:50.266Z,99425.81
2023-07-16T16:19:25.115Z,99428.93
2023-07-16T16:21:52.471Z,99426.70
2023-07-16T16:24:19.520Z,99428.86
2023-07-16T16:26:46.786Z,99430.52
2023-07-16T16:29:13.812Z,99430.73
2023-07-16T16:31:42.206Z,99428.16
2023-07-16T16:34:09.444Z,99427.16
2023-07-16T16:36:36.496Z,99423.65
2023-07-16T16:39:03.638Z,99430.02
2023-07-16T16:41:30.788Z,99428.11
2023-07-16T16:43:57.834Z,99428.77
2023-07-16T16:46:25.305Z,99428.57
2023-07-16T16:48:52.362Z,99427.06
2023-07-16T16:51:20.457Z,99428.07
2023-07-16T16:53:48.098Z,99427.48
2023-07-16T16:56:15.119Z,99428.52
2023-07-16T16:58:42.199Z,99427.10
2023-07-16T17:01:09.233Z,99430.52
2023-07-16T17:03:36.363Z,99427.09
2023-07-16T17:06:03.421Z,99430.38
2023-07-16T17:08:30.564Z,99432.66
2023-07-16T17:10:58.187Z,99427.39
2023-07-16T17:13:25.270Z,99432.41
2023-07-16T17:15:52.224Z,99436.01
2023-07-16T17:18:19.607Z,99433.66
2023-07-16T17:20:47.972Z,99434.42
2023-07-16T17:23:15.029Z,99435.55
2023-07-16T17:25:42.586Z,99439.21
2023-07-16T17:28:09.708Z,99445.09
2023-07-16T17:30:38.316Z,99445.70
2023-07-16T17:33:05.413Z,99451.40
2023-07-16T17:35:33.092Z,99448.15
2023-07-16T17:38:00.376Z,99451.01
2023-07-16T17:40:27.432Z,99452.53
2023-07-16T17:42:55.287Z,99451.89
2023-07-16T17:45:24.048Z,99454.59
2023-07-16T17:47:51.118Z,99455.40
2023-07-16T17:50:18.345Z,99458.55
2023-07-16T17:52:47.442Z,99459.77
2023-07-16T17:55:14.565Z,99458.14
2023-07-16T17:57:44.839Z,99462.56
2023-07-16T18:00:23.901Z,99462.83
2023-07-16T18:02:52.166Z,99464.58
2023-07-16T18:05:19.834Z,99469.56
2023-07-16T18:07:51.334Z,99468.70
2023-07-16T18:10:21.569Z,99465.91
2023-07-16T18:12:48.711Z,99472.63
2023-07-16T18:15:15.985Z,99468.85
2023-07-16T18:17:47.317Z,99469.94
2023-07-16T18:20:15.279Z,99469.74
2023-07-16T18:22:42.885Z,99473.04
2023-07-16T18:25:12.705Z,99473.30
2023-07-16T18:27:39.709Z,99470.38
2023-07-16T18:30:08.366Z,99473.90
2023-07-16T18:32:39.425Z,99474.42
2023-07-16T18:35:07.184Z,99475.04
2023-07-16T18:37:36.074Z,99474.64
2023-07-16T18:40:04.408Z,99474.71
2023-07-16T18:42:32.214Z,99477.71
2023-07-16T18:45:05.249Z,99474.53
2023-07-16T18:47:32.495Z,99474.93
2023-07-16T18:49:59.709Z,99474.33
2023-07-16T18:52:26.871Z,99472.78
2023-07-16T18:54:55.650Z,99477.45
2023-07-16T18:57:24.580Z,99479.91
2023-07-16T18:59:52.705Z,99480.95
2023-07-16T19:02:20.164Z,99486.04
2023-07-16T19:04:47.144Z,99486.58
2023-07-16T19:07:14.358Z,99489.98
2023-07-16T19:09:41.514Z,99490.05
2023-07-16T19:12:09.066Z,99494.45
2023-07-16T19:14:38.086Z,99492.80
2023-07-16T19:17:05.728Z,99486.75
2023-07-16T19:19:32.970Z,99489.27
2023-07-16T19:22:00.027Z,99491.80
2023-07-16T19:24:26.974Z,99490.16
2023-07-16T19:26:54.127Z,99485.45
2023-07-16T19:29:20.958Z,99485.82
2023-07-16T19:31:48.063Z,99481.68
2023-07-16T19:34:15.155Z,99478.39
2023-07-16T19:36:42.830Z,99478.06
2023-07-16T19:39:09.968Z,99476.26
2023-07-16T19:41:37.143Z,99477.52
2023-07-16T19:44:04.371Z,99472.26
2023-07-16T19:46:32.312Z,99475.55
2023-07-16T19:48:59.688Z,99476.89
2023-07-16T19:51:26.835Z,99475.73
2023-07-16T19:53:53.905Z,99476.30
2023-07-16T19:56:22.279Z,99474.75
2023-07-16T19:58:49.541Z,99471.34
2023-07-16T20:01:16.822Z,99475.18
2023-07-16T20:03:43.940Z,99468.66
2023-07-16T20:06:11.150Z,99471.41
2023-07-16T20:08:38.866Z,99467.93
2023-07-16T20:11:05.880Z,99471.24
2023-07-16T20:13:35.229Z,99475.34
2023-07-16T20:16:07.066Z,99474.05
2023-07-16T20:18:36.671Z,99476.15
2023-07-16T20:21:05.474Z,99477.47
2023-07-16T20:23:34.732Z,99479.33
2023-07-16T20:26:01.782Z,99481.99
2023-07-16T20:28:29.028Z,99479.63
2023-07-16T20:30:56.173Z,99480.70
2023-07-16T20:33:23.555Z,99482.85
2023-07-16T20:35:51.203Z,99482.29
2023-07-16T20:38:18.372Z,99481.59
2023-07-16T20:40:47.438Z,99482.94
2023-07-16T20:43:16.224Z,99487.98
2023-07-16T20:45:46.094Z,99485.95
2023-07-16T20:48:17.081Z,99485.21
2023-07-16T20:50:44.063Z,99490.56
2023-07-16T20:53:11.492Z,99488.20
2023-07-16T20:55:38.537Z,99493.91
2023-07-16T20:58:06.198Z,99493.96
2023-07-16T21:00:33.260Z,99494.80
2023-07-16T21:03:05.527Z,99496.80
2023-07-16T21:05:33.376Z,99497.92
2023-07-16T21:08:01.660Z,99501.58
2023-07-16T21:10:28.929Z,99499.17
2023-07-16T21:12:57.757Z,99499.80
2023-07-16T21:15:27.007Z,99499.45
2023-07-16T21:17:54.067Z,99497.11
2023-07-16T21:20:21.108Z,99500.02
2023-07-16T21:22:48.471Z,99497.95
2023-07-16T21:25:15.829Z,99497.33
2023-07-16T21:27:47.560Z,99499.13
2023-07-16T21:30:15.218Z,99497.31
2023-07-16T21:32:44.984Z,99496.13
2023-07-16T21:35:12.947Z,99495.48
2023-07-16T21:37:40.899Z,99494.35
2023-07-16T21:40:08.520Z,99495.94
2023-07-16T21:42:36.281Z,99496.85
2023-07-16T21:45:04.074Z,99495.92
2023-07-16T21:47:31.120Z,99494.59
2023-07-16T21:49:58.775Z,99498.35
2023-07-16T21:52:25.907Z,99494.34
2023-07-16T21:54:53.195Z,99496.90
2023-07-16T21:57:20.207Z,99496.13
2023-07-16T21:59:47.878Z,99496.21
2023-07-16T22:02:15.019Z,99494.70
2023-07-16T22:04:42.088Z,99496.64
2023-07-16T22:07:09.618Z,99487.92
2023-07-16T22:09:36.670Z,99493.23
2023-07-16T22:12:04.137Z,99491.61
2023-07-16T22:14:31.281Z,99492.77
2023-07-16T22:16:58.248Z,99495.73
2023-07-16T22:19:32.572Z,99495.27
2023-07-16T22:22:01.298Z,99492.13
2023-07-16T22:24:28.697Z,99497.20
2023-07-16T22:26:56.147Z,99499.58
2023-07-16T22:29:24.034Z,99496.05
2023-07-16T22:31:51.003Z,99497.27
2023-07-16T22:34:18.346Z,99497.46
2023-07-16T22:36:46.013Z,99498.91
2023-07-16T22:39:13.724Z,99495.54
2023-07-16T22:41:43.143Z,99496.24
2023-07-16T22:44:10.077Z,99496.92
2023-07-16T22:46:37.095Z,99496.19
2023-07-16T22:49:07.135Z,99500.11
2023-07-16T22:51:34.730Z,99494.34
2023-07-16T22:54:03.586Z,99496.05
2023-07-16T22:56:30.947Z,99491.48
2023-07-16T22:58:57.886Z,99488.88
2023-07-16T23:01:25.238Z,99491.83
2023-07-16T23:03:52.230Z,99492.30
2023-07-16T23:06:19.643Z,99496.23
2023-07-16T23:08:46.710Z,99494.32
2023-07-16T23:11:14.186Z,99498.19
2023-07-16T23:13:44.414Z,99495.27
2023-07-16T23:16:11.981Z,99494.86
2023-07-16T23:18:38.970Z,99491.15
2023-07-16T23:21:07.877Z,99490.80
2023-07-16T23:23:36.754Z,99491.41
2023-07-16T23:26:07.124Z,99488.83
2023-07-16T23:28:34.844Z,99491.03
2023-07-16T23:31:02.050Z,99492.98
2023-07-16T23:33:29.384Z,99491.58
2023-07-16T23:35:57.130Z,99486.74
2023-07-16T23:38:24.684Z,99487.28
2023-07-16T23:40:52.225Z,99485.02
2023-07-16T23:43:19.296Z,99485.21
2023-07-16T23:45:46.318Z,99485.55
2023-07-16T23:48:14.424Z,99483.85
2023-07-16T23:50:44.511Z,99481.14
2023-07-16T23:53:11.461Z,99479.60
2023-07-16T23:55:39.552Z,99484.98
2023-07-16T23:58:06.787Z,99484.09
